Accueil
METAR-TAF:

METAR-TAF

Aéroports :

Elsenborn

Butgenbach, Belgique

latitude: 50-28N, longitude: 006-11E, altitude: 564 m

Observation

Le bulletin a été fait il y a 16 minutes, à 15:13 UTC
Vent 9 kt de ouest/sud-ouest
Température 2°C
Humidité 100%
Pression 1023 hPa
Visibilité: 1600 m
faible bruine

METAR: EBLB 271513Z AUTO 25009KT 1600 -DZ OVC003/// 02/02 Q1023 YLO

Heure: 16:29 (15:29 UTC)


TAF: absent

Observations et prévisions météorologiques de plus de 4000 aéroports (messages METAR et TAF).

Les stations disponibles sont représentées par des disques jaunes et rouges sur la carte.

Passer la souris dessus pour voir le nom de la station.

Cliquer dessus pour voir les observations et prévisions météorologiques.

Pour changer de carte: cliquez sur les boutons verts avec une croix noire pour zoomer, sur le bouton vert avec un tiret pour effectuer un zoom arrière, ou sur les flèches vertes pour les cartes adjacentes.


METAR-TAF: